Time;durP1;ratioP1;P1;durP2;ratioP2;P2;SDS_P1;SDS_P2;PMS_P1;PMS_P2;Temp;Humidity;BMP_temperature;BMP_pressure;BME280_temperature;BME280_humidity;BME280_pressure;Samples;Min_cycle;Max_cycle;Signal;HPM_P1;HPM_P2
2021/05/27 00:01:34;;;;;;;4.40;2.83;;;;;;;13.75;58.21;99781.99;154334;1095;103145;-79
2021/05/27 00:04:38;;;;;;;3.57;2.70;;;;;;;13.73;58.26;99789.39;154039;1096;103576;-79
2021/05/27 00:07:42;;;;;;;2.97;2.50;;;;;;;13.70;58.48;99795.14;154147;1101;103221;-78
2021/05/27 00:10:45;;;;;;;4.43;2.80;;;;;;;13.67;58.50;99797.36;154068;1101;103175;-79
2021/05/27 00:13:49;;;;;;;3.85;2.50;;;;;;;13.63;58.44;99799.57;153992;1101;103222;-78
2021/05/27 00:16:52;;;;;;;4.17;2.40;;;;;;;13.58;58.54;99803.81;154063;1101;103229;-79
2021/05/27 00:19:56;;;;;;;3.07;2.47;;;;;;;13.48;58.67;99802.23;154043;1094;103484;-78
2021/05/27 00:22:59;;;;;;;4.47;2.20;;;;;;;13.45;59.22;99809.80;154125;1101;103244;-80
2021/05/27 00:26:03;;;;;;;4.07;2.07;;;;;;;13.45;58.45;99807.12;154010;1101;103218;-79
2021/05/27 00:29:06;;;;;;;3.43;2.50;;;;;;;13.46;58.95;99806.94;154025;1096;103187;-78
2021/05/27 00:32:10;;;;;;;3.27;2.37;;;;;;;13.46;58.89;99800.76;154124;1096;103518;-78
2021/05/27 00:35:14;;;;;;;3.48;2.35;;;;;;;13.43;58.83;99801.94;154032;1101;103181;-78
2021/05/27 00:38:18;;;;;;;3.53;2.57;;;;;;;13.35;59.04;99794.81;154060;1101;103123;-81
2021/05/27 00:41:21;;;;;;;3.63;2.40;;;;;;;13.29;58.99;99792.01;154028;1101;103199;-78
2021/05/27 00:44:27;;;;;;;3.83;2.48;;;;;;;13.26;59.29;99790.53;154070;1101;103554;-79
2021/05/27 00:47:31;;;;;;;4.70;3.00;;;;;;;13.20;59.05;99785.88;154033;1094;103506;-77
2021/05/27 00:50:35;;;;;;;5.28;3.28;;;;;;;13.14;59.83;99784.78;154074;1101;103309;-77
2021/05/27 00:53:39;;;;;;;4.10;2.95;;;;;;;13.09;59.64;99784.48;154004;1096;103143;-77
2021/05/27 00:56:43;;;;;;;4.13;2.93;;;;;;;13.04;60.06;99778.00;154066;1101;103256;-79
2021/05/27 00:59:46;;;;;;;5.93;3.00;;;;;;;12.98;59.81;99792.95;154004;1096;103496;-78
2021/05/27 01:02:54;;;;;;;3.13;2.50;;;;;;;13.03;60.41;99789.72;154044;1094;103143;-78
2021/05/27 01:05:57;;;;;;;5.17;2.93;;;;;;;13.10;60.28;99794.17;154051;1100;103269;-78
2021/05/27 01:09:03;;;;;;;3.40;2.65;;;;;;;13.15;60.28;99791.80;154030;1101;103214;-77
2021/05/27 01:12:08;;;;;;;5.20;3.30;;;;;;;13.23;59.96;99790.89;154047;1101;103227;-77
2021/05/27 01:15:29;;;;;;;4.98;2.85;;;;;;;13.28;60.68;99783.14;153989;1101;103168;-78
2021/05/27 01:18:33;;;;;;;4.23;3.10;;;;;;;13.32;60.58;99787.16;154012;1101;103098;-78
2021/05/27 01:21:41;;;;;;;4.70;3.10;;;;;;;13.33;60.58;99778.08;154046;1101;103281;-78
2021/05/27 01:24:45;;;;;;;4.17;2.73;;;;;;;13.32;60.41;99783.65;154055;1094;103110;-79
2021/05/27 01:27:49;;;;;;;5.05;3.48;;;;;;;13.29;60.56;99784.80;153970;1101;103202;-79
2021/05/27 01:30:52;;;;;;;4.10;2.80;;;;;;;13.28;60.51;99777.79;154104;1096;103560;-79
2021/05/27 01:34:16;;;;;;;3.73;2.40;;;;;;;13.26;60.68;99790.53;154260;1096;103100;-78
2021/05/27 01:37:20;;;;;;;4.38;2.68;;;;;;;13.25;60.75;99788.03;154064;1101;103261;-79
2021/05/27 01:40:25;;;;;;;3.73;2.83;;;;;;;13.28;61.04;99791.19;154059;1101;103131;-79
2021/05/27 01:43:29;;;;;;;4.70;3.00;;;;;;;13.29;60.73;99786.65;154125;1101;103221;-76
2021/05/27 01:46:33;;;;;;;4.90;2.90;;;;;;;13.27;60.91;99776.11;154066;1101;103190;-76
2021/05/27 01:49:40;;;;;;;4.40;2.75;;;;;;;13.30;60.97;99786.50;154136;1096;103213;-76
2021/05/27 01:52:44;;;;;;;4.70;2.95;;;;;;;13.26;60.94;99782.50;154153;1101;103231;-76
2021/05/27 01:55:49;;;;;;;3.80;3.05;;;;;;;13.24;60.79;99780.99;154125;1096;103247;-77
2021/05/27 01:59:01;;;;;;;4.50;2.90;;;;;;;13.14;61.04;99775.90;154456;1096;103170;-78
2021/05/27 02:02:05;;;;;;;5.47;3.13;;;;;;;13.07;60.92;99765.09;154005;1096;103134;-80
2021/05/27 02:05:10;;;;;;;4.63;3.37;;;;;;;13.02;61.19;99780.03;154045;1095;103664;-79
2021/05/27 02:08:14;;;;;;;6.07;3.57;;;;;;;13.00;61.35;99779.38;154092;1101;103288;-78
2021/05/27 02:11:22;;;;;;;4.93;3.33;;;;;;;12.97;61.36;99780.56;153998;1096;103221;-78
2021/05/27 02:14:27;;;;;;;4.37;3.00;;;;;;;12.98;61.12;99773.38;154043;1101;103125;-78
2021/05/27 02:17:30;;;;;;;4.30;3.30;;;;;;;12.97;61.49;99777.88;154034;1096;103115;-78
2021/05/27 02:20:34;;;;;;;5.05;3.50;;;;;;;12.94;61.61;99780.94;154098;1101;103224;-79
2021/05/27 02:23:39;;;;;;;4.78;3.38;;;;;;;12.96;61.28;99779.73;154002;1096;103260;-80
2021/05/27 02:26:45;;;;;;;5.50;3.27;;;;;;;12.92;61.21;99783.78;154102;1096;103110;-80
2021/05/27 02:29:50;;;;;;;4.23;3.20;;;;;;;12.88;61.34;99781.66;154102;1101;103223;-77
2021/05/27 02:32:56;;;;;;;3.90;3.20;;;;;;;12.84;61.75;99783.03;154068;1101;103160;-78
2021/05/27 02:36:01;;;;;;;4.30;3.17;;;;;;;12.76;61.68;99789.28;154059;1101;103235;-78
2021/05/27 02:39:05;;;;;;;4.23;3.27;;;;;;;12.71;61.69;99794.33;154118;1096;103262;-79
2021/05/27 02:42:19;;;;;;;3.93;3.08;;;;;;;12.65;61.94;99787.02;154107;1095;103216;-76
2021/05/27 02:45:23;;;;;;;3.97;3.10;;;;;;;12.62;61.99;99792.72;153920;1101;103168;-77
2021/05/27 02:48:27;;;;;;;3.85;2.68;;;;;;;12.56;61.99;99797.76;154087;1101;103325;-77
2021/05/27 02:51:32;;;;;;;4.60;2.83;;;;;;;12.57;61.45;99786.05;154064;1095;103125;-78
2021/05/27 02:54:36;;;;;;;4.28;2.68;;;;;;;12.60;61.48;99794.74;154328;1096;103262;-81
2021/05/27 02:57:40;;;;;;;4.68;3.00;;;;;;;12.62;62.10;99798.07;154131;1096;103221;-80
2021/05/27 03:00:45;;;;;;;4.93;3.47;;;;;;;12.61;61.95;99796.42;154280;1101;103498;-78
2021/05/27 03:04:00;;;;;;;3.90;2.80;;;;;;;12.65;61.67;99797.73;154238;1096;103131;-82
2021/05/27 03:07:04;;;;;;;4.25;3.30;;;;;;;12.72;61.95;99793.30;154189;1096;103118;-80
2021/05/27 03:10:11;;;;;;;4.53;2.93;;;;;;;12.76;61.88;99794.64;154080;1096;103231;-81
2021/05/27 03:13:15;;;;;;;3.17;2.63;;;;;;;12.77;61.74;99796.29;154397;1101;103132;-82
2021/05/27 03:16:19;;;;;;;5.43;2.73;;;;;;;12.79;62.40;99793.44;154413;1101;103097;-82
2021/05/27 03:19:23;;;;;;;3.93;2.70;;;;;;;12.80;62.08;99795.95;154744;1101;103202;-82
2021/05/27 03:22:27;;;;;;;3.23;2.48;;;;;;;12.82;62.14;99788.56;154353;1101;103137;-84
2021/05/27 03:25:32;;;;;;;4.63;2.70;;;;;;;12.88;61.79;99795.05;154316;1096;103216;-81
2021/05/27 03:28:36;;;;;;;4.60;2.60;;;;;;;12.95;62.40;99791.48;154128;1101;103200;-83
2021/05/27 03:31:50;;;;;;;3.10;2.40;;;;;;;13.04;62.13;99800.25;154063;1096;103214;-81
2021/05/27 03:34:55;;;;;;;4.70;2.57;;;;;;;13.10;62.45;99804.06;154604;1096;103631;-84
2021/05/27 03:37:58;;;;;;;4.33;2.50;;;;;;;13.14;62.47;99805.36;154135;1096;103114;-81
2021/05/27 03:41:03;;;;;;;3.23;2.27;;;;;;;13.16;61.99;99800.66;154259;1101;103384;-81
2021/05/27 03:44:09;;;;;;;3.17;2.57;;;;;;;13.16;62.55;99806.87;154018;1096;103230;-79
2021/05/27 03:47:14;;;;;;;3.80;2.30;;;;;;;13.18;62.32;99801.30;154221;1096;103221;-81
2021/05/27 03:50:19;;;;;;;3.30;2.45;;;;;;;13.20;62.33;99809.16;154293;1096;103326;-85
2021/05/27 03:53:24;;;;;;;3.97;2.57;;;;;;;13.21;62.16;99811.67;154334;1101;103141;-86
2021/05/27 03:56:35;;;;;;;5.27;2.90;;;;;;;13.22;61.94;99813.35;154228;1096;103164;-88
2021/05/27 04:03:06;;;;;;;3.77;2.30;;;;;;;13.31;62.31;99804.23;154253;1101;103116;-83
2021/05/27 04:09:36;;;;;;;4.67;2.30;;;;;;;13.50;62.16;99813.59;154209;1096;103126;-85
2021/05/27 04:12:46;;;;;;;2.85;2.35;;;;;;;13.53;62.21;99815.10;154122;1101;103176;-84
2021/05/27 04:15:51;;;;;;;3.80;2.30;;;;;;;13.58;62.34;99823.41;154137;1101;103128;-86
2021/05/27 04:18:55;;;;;;;3.68;2.10;;;;;;;13.61;62.12;99833.77;154134;1096;103077;-84
2021/05/27 04:21:59;;;;;;;3.75;2.35;;;;;;;13.65;61.88;99835.06;154127;1101;103228;-85
2021/05/27 04:25:03;;;;;;;4.27;2.63;;;;;;;13.61;61.85;99838.31;154155;1101;103221;-85
2021/05/27 04:28:07;;;;;;;3.17;2.20;;;;;;;13.64;61.96;99843.29;154132;1096;103221;-83
2021/05/27 04:31:13;;;;;;;2.93;2.27;;;;;;;13.73;62.18;99840.34;154179;1101;103163;-79
2021/05/27 04:34:16;;;;;;;3.35;2.40;;;;;;;13.98;62.08;99853.48;154008;1096;103467;-83
2021/05/27 04:37:20;;;;;;;3.30;2.30;;;;;;;14.18;61.79;99843.01;154039;1101;103220;-83
2021/05/27 04:40:24;;;;;;;3.63;2.17;;;;;;;14.31;61.77;99837.81;153958;1101;103275;-82
2021/05/27 04:43:28;;;;;;;3.15;1.90;;;;;;;14.40;61.48;99838.55;153956;1101;103260;-81
2021/05/27 04:46:31;;;;;;;3.53;2.38;;;;;;;14.48;61.47;99838.43;153986;1101;103123;-81
2021/05/27 04:49:35;;;;;;;3.03;2.30;;;;;;;14.58;61.43;99838.16;154025;1101;103128;-82
2021/05/27 04:52:38;;;;;;;4.00;2.10;;;;;;;14.64;61.31;99839.26;154078;1096;103125;-80
2021/05/27 04:55:42;;;;;;;3.35;1.93;;;;;;;14.63;61.33;99835.75;154091;1101;103235;-80
2021/05/27 04:58:46;;;;;;;3.57;2.17;;;;;;;14.68;61.08;99829.80;154038;1094;103358;-79
2021/05/27 05:01:49;;;;;;;2.97;2.00;;;;;;;14.65;61.12;99843.62;154184;1101;103196;-82
2021/05/27 05:04:53;;;;;;;2.88;1.95;;;;;;;14.58;61.27;99835.47;154084;1101;103135;-82
2021/05/27 05:07:57;;;;;;;3.27;2.30;;;;;;;14.60;61.19;99849.54;154305;1101;103219;-82
2021/05/27 05:11:00;;;;;;;2.78;2.05;;;;;;;14.64;61.29;99850.00;154015;1101;103211;-84
2021/05/27 05:14:04;;;;;;;3.20;2.40;;;;;;;14.78;61.30;99843.77;154133;1101;103269;-74
2021/05/27 05:17:08;;;;;;;4.08;2.13;;;;;;;15.10;61.13;99837.03;153996;1095;103191;-76
2021/05/27 05:20:13;;;;;;;3.88;2.10;;;;;;;15.51;60.58;99843.56;154053;1096;103139;-74
2021/05/27 05:23:17;;;;;;;3.28;2.10;;;;;;;15.90;60.81;99847.61;154063;1095;103217;-73
2021/05/27 05:26:21;;;;;;;4.38;2.23;;;;;;;16.31;60.73;99851.33;154043;1096;103250;-75
2021/05/27 05:29:24;;;;;;;4.00;2.70;;;;;;;16.43;59.23;99853.23;154025;1095;103269;-73
2021/05/27 05:32:28;;;;;;;3.10;2.10;;;;;;;16.42;59.76;99862.36;154047;1096;103254;-66
2021/05/27 05:35:32;;;;;;;4.55;2.75;;;;;;;16.45;59.42;99861.94;153848;1101;103224;-65
2021/05/27 05:38:35;;;;;;;2.95;1.70;;;;;;;16.36;59.30;99865.86;153855;1096;103249;-65
2021/05/27 05:41:41;;;;;;;3.88;2.13;;;;;;;16.36;59.55;99865.86;153813;1101;103122;-64
2021/05/27 05:44:44;;;;;;;3.90;2.15;;;;;;;16.34;59.10;99869.76;153813;1101;103224;-64
2021/05/27 05:47:49;;;;;;;3.05;2.20;;;;;;;16.32;59.40;99869.98;153873;1095;103164;-65
2021/05/27 05:50:56;;;;;;;2.73;2.00;;;;;;;16.35;59.08;99872.26;153855;1101;103231;-64
2021/05/27 05:54:00;;;;;;;2.47;1.90;;;;;;;16.52;59.00;99878.14;153833;1101;103338;-65
2021/05/27 05:57:04;;;;;;;4.03;2.10;;;;;;;16.55;58.73;99879.59;153836;1096;103142;-64
2021/05/27 06:00:10;;;;;;;3.50;1.90;;;;;;;16.58;58.81;99879.20;153833;1096;103264;-65
2021/05/27 06:03:19;;;;;;;3.13;1.87;;;;;;;16.71;58.52;99884.63;153879;1096;103198;-65
2021/05/27 06:06:42;;;;;;;2.73;1.90;;;;;;;16.74;57.87;99886.08;153793;1096;103219;-65
2021/05/27 06:10:06;;;;;;;3.40;2.00;;;;;;;16.72;57.57;99882.77;153766;1101;103198;-64
2021/05/27 06:13:09;;;;;;;3.13;1.60;;;;;;;16.66;57.69;99879.01;153886;1101;103132;-66
2021/05/27 06:16:13;;;;;;;2.83;1.53;;;;;;;16.68;57.41;99874.25;153768;1101;103254;-65
2021/05/27 06:19:16;;;;;;;1.48;1.23;;;;;;;16.78;57.56;99881.94;153854;1096;103215;-64
2021/05/27 06:22:40;;;;;;;2.50;1.23;;;;;;;16.83;55.66;99883.03;153857;1101;103231;-64
2021/05/27 06:25:48;;;;;;;2.28;1.70;;;;;;;16.61;56.10;99897.63;153849;1101;103691;-65
2021/05/27 06:28:51;;;;;;;2.53;1.63;;;;;;;16.33;55.77;99893.17;153821;1096;103266;-64
2021/05/27 06:31:54;;;;;;;1.77;1.37;;;;;;;16.12;55.23;99917.49;153821;1096;103206;-65
2021/05/27 06:34:58;;;;;;;2.43;1.50;;;;;;;15.97;55.87;99901.45;153856;1101;103155;-66
2021/05/27 06:38:02;;;;;;;2.18;1.65;;;;;;;16.00;56.74;99904.58;153815;1096;103196;-66
2021/05/27 06:41:07;;;;;;;3.08;1.18;;;;;;;16.13;56.29;99898.46;153796;1096;103135;-64
2021/05/27 06:44:11;;;;;;;2.00;1.35;;;;;;;16.31;56.22;99911.39;153804;1096;103217;-64
2021/05/27 06:47:15;;;;;;;2.58;1.25;;;;;;;16.46;55.47;99917.47;153792;1101;103247;-66
2021/05/27 06:50:33;;;;;;;1.80;1.30;;;;;;;16.54;55.74;99912.95;153846;1096;103210;-65
2021/05/27 06:53:37;;;;;;;2.28;1.48;;;;;;;16.55;55.06;99915.45;153850;1096;103339;-65
2021/05/27 06:56:41;;;;;;;1.95;1.53;;;;;;;16.53;55.15;99914.80;153793;1102;103138;-65
2021/05/27 06:59:45;;;;;;;2.87;2.10;;;;;;;16.71;55.47;99913.45;153826;1101;103205;-64
2021/05/27 07:02:49;;;;;;;2.75;1.70;;;;;;;16.86;55.52;99909.58;153794;1101;103371;-65
2021/05/27 07:05:52;;;;;;;1.55;1.25;;;;;;;17.07;55.02;99919.39;153855;1101;103213;-66
2021/05/27 07:08:56;;;;;;;2.73;1.40;;;;;;;17.31;54.67;99925.23;153764;1101;103225;-64
2021/05/27 07:11:59;;;;;;;1.05;0.95;;;;;;;17.20;54.04;99918.56;153806;1096;103231;-64
2021/05/27 07:15:06;;;;;;;1.17;1.00;;;;;;;16.91;53.16;99929.70;153832;1096;103196;-64
2021/05/27 07:18:10;;;;;;;1.17;0.90;;;;;;;16.96;53.99;99927.23;153827;1095;103263;-65
2021/05/27 07:21:13;;;;;;;1.93;1.00;;;;;;;17.17;53.84;99924.38;153818;1101;103100;-73
2021/05/27 07:24:17;;;;;;;2.20;1.13;;;;;;;17.35;53.20;99931.05;154002;1101;103247;-72
2021/05/27 07:27:21;;;;;;;1.40;1.10;;;;;;;17.42;52.95;99929.20;153965;1101;103124;-65
2021/05/27 07:30:27;;;;;;;1.70;1.10;;;;;;;17.55;52.35;99926.52;153827;1101;103507;-65
2021/05/27 07:33:30;;;;;;;1.78;1.10;;;;;;;17.62;52.86;99934.59;153787;1096;103263;-69
2021/05/27 07:36:34;;;;;;;1.23;0.90;;;;;;;17.81;52.94;99947.25;153858;1096;103221;-69
2021/05/27 07:39:38;;;;;;;1.63;1.23;;;;;;;17.92;51.69;99945.84;153905;1095;103231;-64
2021/05/27 07:42:41;;;;;;;1.20;1.00;;;;;;;17.97;51.57;99940.63;153930;1101;103151;-65
2021/05/27 07:45:45;;;;;;;2.03;0.90;;;;;;;17.95;51.78;99931.91;153817;1096;103232;-72
2021/05/27 07:48:49;;;;;;;1.30;0.98;;;;;;;18.00;51.30;99934.81;153977;1101;103251;-70
2021/05/27 07:51:52;;;;;;;2.40;0.90;;;;;;;17.84;50.35;99940.63;154042;1101;103244;-70
2021/05/27 07:54:56;;;;;;;3.20;0.80;;;;;;;17.76;50.89;99938.12;153869;1096;103178;-70
2021/05/27 07:58:00;;;;;;;2.50;1.10;;;;;;;17.72;51.02;99947.67;153818;1095;103509;-64
2021/05/27 08:01:05;;;;;;;2.25;0.90;;;;;;;17.81;51.24;99941.86;153863;1101;103195;-67
2021/05/27 08:04:09;;;;;;;1.63;0.80;;;;;;;17.91;51.07;99948.74;153913;1101;103183;-64
2021/05/27 08:07:13;;;;;;;1.00;0.90;;;;;;;18.04;49.59;99952.25;153855;1101;103135;-64
2021/05/27 08:10:18;;;;;;;2.88;0.80;;;;;;;18.08;49.96;99954.55;153859;1096;103224;-65
2021/05/27 08:13:22;;;;;;;1.78;0.95;;;;;;;18.11;49.78;99948.71;153818;1101;103142;-64
2021/05/27 08:16:25;;;;;;;1.10;0.80;;;;;;;18.26;50.46;99960.11;153799;1096;103143;-65
2021/05/27 08:19:29;;;;;;;1.10;1.00;;;;;;;18.21;49.30;99947.25;153880;1096;103265;-65
2021/05/27 08:22:32;;;;;;;1.30;0.98;;;;;;;18.37;49.39;99962.17;153870;1101;103119;-65
2021/05/27 08:25:36;;;;;;;2.37;1.20;;;;;;;18.59;48.48;99957.34;153805;1094;103103;-65
2021/05/27 08:28:39;;;;;;;1.43;0.93;;;;;;;18.69;49.09;99959.59;153792;1101;103145;-65
2021/05/27 08:31:43;;;;;;;1.95;0.90;;;;;;;18.80;48.87;99967.07;153807;1096;103136;-65
2021/05/27 08:34:47;;;;;;;2.53;1.07;;;;;;;18.86;49.09;99970.80;153851;1101;103258;-65
2021/05/27 08:37:50;;;;;;;0.95;0.70;;;;;;;18.78;47.40;99974.53;153834;1101;103165;-65
2021/05/27 08:40:56;;;;;;;1.95;0.90;;;;;;;18.67;47.39;99977.90;153793;1101;103218;-65
2021/05/27 08:44:02;;;;;;;3.33;1.00;;;;;;;18.84;48.19;99962.04;153771;1096;104417;-66
2021/05/27 08:47:05;;;;;;;1.47;0.90;;;;;;;19.05;47.19;99977.13;153824;1101;103128;-65
2021/05/27 08:50:11;;;;;;;1.10;0.90;;;;;;;18.90;46.78;99987.39;153777;1101;103227;-66
2021/05/27 08:53:16;;;;;;;1.38;1.03;;;;;;;18.87;48.07;99988.66;153835;1101;103250;-65
2021/05/27 08:56:19;;;;;;;2.53;1.00;;;;;;;19.08;47.91;99990.23;153827;1096;103107;-65
2021/05/27 08:59:23;;;;;;;2.08;0.98;;;;;;;19.06;45.74;99975.28;153795;1101;103165;-65
2021/05/27 09:02:27;;;;;;;1.73;1.10;;;;;;;18.77;47.10;99983.67;153807;1096;103125;-65
2021/05/27 09:05:32;;;;;;;1.15;0.88;;;;;;;18.67;47.46;99986.00;153821;1096;103304;-65
2021/05/27 09:08:37;;;;;;;1.30;0.93;;;;;;;18.86;47.30;99986.16;153866;1094;103107;-65
2021/05/27 09:11:42;;;;;;;2.35;1.00;;;;;;;19.02;45.81;99991.92;153796;1096;103133;-65
2021/05/27 09:14:46;;;;;;;1.47;0.90;;;;;;;18.99;46.24;99989.63;153836;1096;103248;-65
2021/05/27 09:17:52;;;;;;;1.90;1.00;;;;;;;19.12;46.69;99990.63;153820;1094;103495;-64
2021/05/27 09:20:56;;;;;;;1.93;0.93;;;;;;;19.37;46.32;99985.30;153846;1095;103260;-65
2021/05/27 09:23:59;;;;;;;1.38;0.98;;;;;;;19.50;46.09;99993.33;153899;1101;103198;-65
2021/05/27 09:27:03;;;;;;;2.20;1.30;;;;;;;19.68;45.40;99997.16;153802;1101;103272;-65
2021/05/27 09:30:12;;;;;;;1.68;1.20;;;;;;;19.79;45.50;100012.73;153827;1101;103139;-65
2021/05/27 09:33:16;;;;;;;1.93;1.33;;;;;;;19.99;45.89;100005.27;153879;1096;103142;-65
2021/05/27 09:36:21;;;;;;;1.40;1.30;;;;;;;20.28;45.85;100002.93;153872;1101;103668;-65
2021/05/27 09:39:38;;;;;;;1.90;1.43;;;;;;;20.39;45.15;100006.80;153950;1096;103250;-64
2021/05/27 09:42:50;;;;;;;1.23;1.00;;;;;;;20.44;43.57;100008.83;153872;1101;103203;-65
2021/05/27 09:46:06;;;;;;;2.90;1.00;;;;;;;20.35;44.14;100011.83;153864;1101;103187;-65
2021/05/27 09:49:10;;;;;;;1.35;1.10;;;;;;;20.26;44.57;100018.58;153919;1101;103141;-65
2021/05/27 09:52:17;;;;;;;2.63;1.00;;;;;;;20.17;44.41;100025.36;153850;1096;103251;-65
2021/05/27 09:55:21;;;;;;;1.30;1.10;;;;;;;20.22;43.81;100025.50;153889;1096;103147;-63
2021/05/27 09:58:25;;;;;;;1.93;1.10;;;;;;;20.21;43.83;100031.98;153874;1096;103195;-66
2021/05/27 10:01:29;;;;;;;2.25;1.10;;;;;;;19.99;43.12;100024.23;153783;1101;103147;-64
2021/05/27 10:04:33;;;;;;;2.37;1.50;;;;;;;19.85;44.06;100030.80;153846;1096;103278;-66
2021/05/27 10:07:39;;;;;;;1.08;0.98;;;;;;;20.00;43.02;100034.02;153795;1101;103176;-66
2021/05/27 10:10:44;;;;;;;1.28;1.10;;;;;;;20.08;43.08;100030.21;153867;1096;103154;-65
2021/05/27 10:13:48;;;;;;;1.90;0.90;;;;;;;20.24;43.46;100031.53;153808;1096;103225;-65
2021/05/27 10:16:52;;;;;;;1.50;0.93;;;;;;;20.37;43.29;100034.11;153852;1096;103212;-65
2021/05/27 10:19:56;;;;;;;2.00;1.10;;;;;;;20.58;42.12;100032.87;153841;1101;103215;-65
2021/05/27 10:23:01;;;;;;;1.80;1.28;;;;;;;20.53;41.79;100040.02;153839;1096;103547;-65
2021/05/27 10:26:05;;;;;;;1.38;1.03;;;;;;;20.39;42.46;100034.72;153821;1101;103140;-65
2021/05/27 10:29:09;;;;;;;3.18;1.50;;;;;;;20.37;42.42;100036.00;153835;1096;103128;-65
2021/05/27 10:32:15;;;;;;;1.40;1.00;;;;;;;20.52;42.57;100032.95;153877;1096;103195;-65
2021/05/27 10:35:20;;;;;;;2.10;1.20;;;;;;;20.53;41.57;100037.30;153835;1101;103138;-71
2021/05/27 10:38:56;;;;;;;1.38;0.88;;;;;;;20.38;42.39;100033.08;153832;1096;103263;-71
2021/05/27 10:42:00;;;;;;;2.80;1.00;;;;;;;19.98;41.82;100040.72;153574;1104;103125;-71
2021/05/27 10:45:10;;;;;;;1.23;0.90;;;;;;;19.76;41.40;100042.94;153570;1105;103295;-64
2021/05/27 10:48:27;;;;;;;3.80;1.10;;;;;;;19.85;41.66;100035.40;153857;1101;103121;-74
2021/05/27 10:51:34;;;;;;;2.13;1.00;;;;;;;19.94;41.93;100040.33;154016;1096;103141;-73
2021/05/27 10:54:38;;;;;;;2.17;1.20;;;;;;;19.86;42.14;100042.45;153962;1101;103254;-73
2021/05/27 10:57:50;;;;;;;1.13;0.77;;;;;;;19.93;41.97;100044.06;154036;1101;103224;-73
2021/05/27 11:00:55;;;;;;;1.10;0.85;;;;;;;20.03;41.82;100048.17;153986;1101;103133;-73
2021/05/27 11:03:59;;;;;;;1.10;0.90;;;;;;;20.08;41.39;100053.77;154025;1096;103224;-73
2021/05/27 11:07:20;;;;;;;1.63;1.00;;;;;;;20.03;41.49;100057.12;154164;1101;103048;-78
2021/05/27 11:10:33;;;;;;;2.37;1.10;;;;;;;20.13;41.41;100056.63;153875;1101;103139;-64
2021/05/27 11:14:13;;;;;;;1.60;1.13;;;;;;;20.17;39.84;100057.87;153831;1101;103192;-64
2021/05/27 11:17:25;;;;;;;2.03;1.38;;;;;;;19.98;40.34;100054.27;153764;1101;103217;-67
2021/05/27 11:20:30;;;;;;;2.70;1.00;;;;;;;19.86;41.06;100051.44;153761;1101;103600;-67
2021/05/27 11:23:34;;;;;;;1.48;1.00;;;;;;;19.88;40.92;100053.90;153855;1096;103144;-66
2021/05/27 11:26:38;;;;;;;1.63;1.13;;;;;;;19.83;41.05;100054.56;153864;1096;103186;-68
2021/05/27 11:30:15;;;;;;;3.05;1.20;;;;;;;19.72;40.36;100049.84;153910;1101;103145;-65
2021/05/27 11:33:32;;;;;;;1.73;1.30;;;;;;;19.60;40.88;100060.51;153828;1101;103213;-65
2021/05/27 11:36:35;;;;;;;1.70;1.20;;;;;;;19.61;40.79;100060.30;153892;1096;103150;-64
2021/05/27 11:39:39;;;;;;;1.83;1.43;;;;;;;19.75;40.98;100060.25;153906;1096;103152;-65
2021/05/27 11:42:47;;;;;;;1.70;1.25;;;;;;;19.87;40.33;100052.25;153816;1101;103264;-65
2021/05/27 11:45:52;;;;;;;1.40;1.10;;;;;;;19.82;40.00;100052.89;153835;1101;103181;-66
2021/05/27 11:48:57;;;;;;;1.40;1.10;;;;;;;19.83;39.63;100057.27;153882;1101;103166;-65
2021/05/27 11:52:01;;;;;;;1.20;1.10;;;;;;;19.82;39.04;100039.36;153831;1096;103136;-66
2021/05/27 11:55:11;;;;;;;2.03;1.43;;;;;;;19.84;40.18;100058.92;153798;1095;103100;-66
2021/05/27 11:58:15;;;;;;;1.18;1.00;;;;;;;19.89;40.40;100056.39;153819;1095;103253;-64
2021/05/27 12:01:21;;;;;;;2.50;1.13;;;;;;;19.97;39.86;100056.11;153857;1101;103125;-64
2021/05/27 12:04:26;;;;;;;1.50;1.10;;;;;;;19.87;40.32;100050.37;153860;1101;103218;-65
2021/05/27 12:07:29;;;;;;;1.50;1.20;;;;;;;19.86;39.74;100053.29;153746;1101;103104;-66
2021/05/27 12:10:35;;;;;;;2.47;1.20;;;;;;;19.94;40.52;100048.45;153856;1096;103138;-65
2021/05/27 12:13:38;;;;;;;4.10;1.40;;;;;;;20.13;39.84;100056.63;153849;1101;103218;-66
2021/05/27 12:16:42;;;;;;;2.58;1.35;;;;;;;20.20;40.05;100060.94;153855;1101;104032;-66
2021/05/27 12:19:49;;;;;;;3.40;1.20;;;;;;;20.40;40.21;100051.83;153801;1101;103132;-64
2021/05/27 12:22:55;;;;;;;2.17;1.40;;;;;;;20.61;39.98;100047.05;153794;1096;103219;-63
2021/05/27 12:25:58;;;;;;;2.53;1.40;;;;;;;20.84;38.93;100040.97;153872;1096;103101;-64
2021/05/27 12:29:02;;;;;;;1.80;1.45;;;;;;;20.91;39.38;100049.88;153817;1101;103194;-64
2021/05/27 12:32:08;;;;;;;2.53;1.17;;;;;;;20.76;39.75;100048.34;153819;1101;103216;-63
2021/05/27 12:35:16;;;;;;;2.00;1.35;;;;;;;20.70;39.74;100043.00;153774;1096;103165;-65
2021/05/27 12:38:23;;;;;;;2.08;1.20;;;;;;;20.60;39.10;100046.23;153834;1096;103557;-65
2021/05/27 12:41:27;;;;;;;2.53;2.00;;;;;;;20.47;39.53;100052.58;153842;1095;103141;-65
2021/05/27 12:44:33;;;;;;;2.25;1.55;;;;;;;20.35;38.82;100060.61;153816;1096;103197;-66
2021/05/27 12:47:37;;;;;;;2.70;1.40;;;;;;;20.08;39.37;100064.60;153906;1101;103122;-65
2021/05/27 12:50:44;;;;;;;3.20;1.50;;;;;;;20.18;39.62;100051.38;153772;1096;103193;-65
2021/05/27 12:53:53;;;;;;;3.37;1.40;;;;;;;20.46;39.63;100050.08;153867;1094;103125;-66
2021/05/27 12:57:05;;;;;;;1.95;1.40;;;;;;;20.74;39.54;100057.77;153814;1101;103199;-66
2021/05/27 13:00:11;;;;;;;2.58;1.40;;;;;;;20.76;37.59;100055.66;153833;1101;103273;-65
2021/05/27 13:03:15;;;;;;;3.78;1.20;;;;;;;20.66;37.83;100058.89;153841;1096;103138;-65
2021/05/27 13:06:21;;;;;;;3.95;1.30;;;;;;;20.62;38.45;100063.11;153774;1101;103221;-65
2021/05/27 13:09:24;;;;;;;1.55;1.30;;;;;;;20.56;39.08;100059.38;153867;1101;103212;-65
2021/05/27 13:12:29;;;;;;;2.13;1.20;;;;;;;20.56;36.43;100066.69;153927;1101;103253;-66
2021/05/27 13:15:44;;;;;;;3.13;1.10;;;;;;;20.47;38.86;100065.30;153876;1101;103168;-69
2021/05/27 13:18:51;;;;;;;2.40;1.08;;;;;;;20.64;39.03;100058.28;153837;1101;103140;-66
2021/05/27 13:21:57;;;;;;;1.88;1.13;;;;;;;20.77;38.90;100055.44;153839;1095;103136;-66
2021/05/27 13:25:04;;;;;;;2.33;1.40;;;;;;;20.93;39.03;100059.42;153801;1101;103091;-66
2021/05/27 13:28:21;;;;;;;1.65;1.20;;;;;;;21.03;38.69;100061.61;153962;1101;103130;-66
2021/05/27 13:31:36;;;;;;;1.30;1.20;;;;;;;20.68;38.27;100066.80;153980;1096;103249;-68
2021/05/27 13:34:45;;;;;;;1.30;1.20;;;;;;;20.45;38.88;100070.13;154075;1101;103125;-65
2021/05/27 13:37:53;;;;;;;2.13;1.20;;;;;;;20.52;38.83;100060.05;153933;1096;103131;-65
2021/05/27 13:40:58;;;;;;;1.53;1.07;;;;;;;20.62;38.85;100059.58;153955;1094;103218;-65
2021/05/27 13:44:01;;;;;;;1.60;1.10;;;;;;;20.74;38.86;100058.59;153860;1096;103227;-65
2021/05/27 13:47:05;;;;;;;2.13;1.30;;;;;;;20.84;38.85;100051.81;153772;1101;103221;-65
2021/05/27 13:50:11;;;;;;;1.10;1.00;;;;;;;20.93;38.50;100055.89;153808;1101;103141;-65
2021/05/27 13:53:15;;;;;;;2.10;1.27;;;;;;;20.94;38.34;100052.14;153926;1095;103219;-65
2021/05/27 13:56:21;;;;;;;1.93;1.13;;;;;;;20.93;38.36;100050.47;153978;1094;103240;-65
2021/05/27 13:59:26;;;;;;;4.27;1.30;;;;;;;20.98;38.43;100046.02;153884;1101;103135;-65
2021/05/27 14:02:30;;;;;;;3.10;1.23;;;;;;;20.99;38.64;100044.13;153788;1101;103283;-65
2021/05/27 14:05:35;;;;;;;2.07;1.20;;;;;;;21.00;37.82;100043.09;153826;1095;103455;-64
2021/05/27 14:08:39;;;;;;;1.17;1.00;;;;;;;20.99;38.70;100035.99;153672;1096;103131;-65
2021/05/27 14:11:43;;;;;;;1.70;1.03;;;;;;;21.03;38.34;100033.66;153914;1096;103130;-65
2021/05/27 14:14:47;;;;;;;2.05;1.20;;;;;;;20.97;38.11;100040.82;153811;1101;103190;-69
2021/05/27 14:17:50;;;;;;;2.17;1.10;;;;;;;20.95;38.51;100046.46;153847;1101;103267;-65